Landauer Inc (LDR) Latest Bloomsberg Price


Mffais Ranking #2005 Overall / #11 Industry
Industry: Measurement Instruments

Number of Companies: 82 (Ranking #1875 Overall/#11 Industry)
Inflow: $ 7,097 (K) (Ranking #2117 Overall/#11 Industry)
Outflow: $ -23,775 (K)
Mffais Flow: $ -16,678 (K) (Ranking #2005 Overall/#11 Industry)


Receive a FREE weekly executive review of stocks moving into the top 10, taking the top industy spot or moving up within their industry. Sent directly to your Inbox every Saturday. Sign up today and get last week's review immediately sent to you.

We value and respect your privacy. Please read our Terms and Conditions which states our firm commitment to your privacy. Your email address will not be shared with a third party, nor will it be sold or used for purposes other than subscription for the weekly review.

Owner CPOR Shares Action Qty Chg Invested (K) Total Current Value (K)
Nuveen Asset Management Llc 2016-09-30 97,557 Added More 25,334 $ 1,024 $ 3,945
Dimensional Fund Advisors Lp 2016-09-30 207,358 Added More 25,296 $ 1,022 $ 8,385
Martingale Asset Management L P 2016-09-30 16,500 New Holding 16,500 $ 667 $ 667
Crawford Investment Counsel Inc 2016-09-30 54,693 Added More 15,129 $ 611 $ 2,211
Bernzott Capital Advisors 2016-09-30 474,380 Added More 13,990 $ 565 $ 19,183
Bessemer Group Inc 2016-09-30 9,500 New Holding 9,500 $ 384 $ 384
Alps Advisors Inc 2016-09-30 9,359 New Holding 9,359 $ 378 $ 378
Lucus Advisors Llc 2016-09-30 8,999 New Holding 8,999 $ 363 $ 363
Panagora Asset Management Inc 2016-09-30 17,321 Added More 7,930 $ 320 $ 700
Legal General Group Plc 2016-09-30 7,945 Added More 6,544 $ 264 $ 321
First Quadrant L P Ca 2016-09-30 6,336 New Holding 6,336 $ 256 $ 256
Eqis Capital Management Inc 2016-09-30 5,533 New Holding 5,533 $ 223 $ 223
Campbell Co Investment Adviser Llc 2016-09-30 5,185 New Holding 5,185 $ 209 $ 209
Thrivent Financial For Lutherans 2016-09-30 4,860 New Holding 4,860 $ 196 $ 196
Mairs Power Inc 2016-09-30 4,629 New Holding 4,629 $ 187 $ 187
Fdx Advisors Inc 2016-09-30 4,579 New Holding 4,579 $ 185 $ 185
New York State Teachers Retirement System 2016-09-30 21,652 Added More 1,500 $ 60 $ 875
Walleye Trading Llc 2016-09-30 1,500 Added More 1,100 $ 44 $ 60
Rhumbline Advisers 2016-09-30 14,497 Added More 765 $ 30 $ 586
Lebenthal Asset Management Llc 2016-09-30 740 New Holding 740 $ 29 $ 29
Teachers Advisors Inc 2016-09-30 21,285 Added More 640 $ 25 $ 860
California State Teachers Retirement System 2016-09-30 20,236 Added More 300 $ 12 $ 818
Acrospire Investment Management Llc 2016-09-30 993 Added More 200 $ 8 $ 40
Comerica Bank 2016-09-30 9,733 Added More 172 $ 6 $ 393
Mason Street Advisors Llc 2016-09-30 1,977 Added More 99 $ 4 $ 79
Pinebridge Investments L P 2016-09-30 1,221 Added More 96 $ 3 $ 49
Blackrock Inc 2016-09-30 1,298 Added More 92 $ 3 $ 52
Pnc Financial Services Group Inc 2016-09-30 5,814 Added More 84 $ 3 $ 235
Northwestern Mutual Wealth Management Co 2016-09-30 15 New Holding 15 $ 0 $ 0
Whitnell Co 2016-09-30 455 Added More 3 $ 0 $ 18
Spark Investment Management Llc 2016-09-30 5,600 No Change 0 $ 0 $ 226
Us Bancorp De 2016-09-30 195 No Change 0 $ 0 $ 7
Old National Bancorp In 2016-09-30 5,579 No Change 0 $ 0 $ 225
Teachers Retirement System Of The State Of Kentucky 2016-09-30 3,000 No Change 0 $ 0 $ 121
Gamco Investors Inc Et Al 2016-09-30 64,000 No Change 0 $ 0 $ 2,588
New York State Common Retirement Fund 2016-09-30 9,800 No Change 0 $ 0 $ 396
Ladenburg Thalmann Financial Services Inc 2016-09-30 200 No Change 0 $ 0 $ 8
Gabelli Funds Llc 2016-09-30 165,000 No Change 0 $ 0 $ 6,672
Nationwide Fund Advisors 2016-09-30 6,283 No Change 0 $ 0 $ 254
Rbf Capital Llc 2016-09-30 6,906 No Change 0 $ 0 $ 279
Public Sector Pension Investment Board 2016-09-30 6,607 No Change 0 $ 0 $ 267
Msi Financial Services Inc 2016-09-30 193 No Change 0 $ 0 $ 7
Teton Advisors Inc 2016-09-30 8,000 No Change 0 $ 0 $ 323
Ls Investment Advisors Llc 2016-09-30 402 No Change 0 $ 0 $ 16
South Dakota Investment Council 2016-09-30 42,100 No Change 0 $ 0 $ 1,702
Arizona State Retirement System 2016-09-30 4,961 No Change 0 $ 0 $ 200
Swiss National Bank 2016-09-30 16,000 No Change 0 $ 0 $ 647
State Of Tennessee Treasury Department 2016-09-30 7,681 No Change 0 $ 0 $ 310
Bronfman E L Rothschild L P 2016-09-30 500 No Change 0 $ 0 $ 20
Advisor Group Inc 2016-09-30 100 No Change 0 $ 0 $ 4
Cornerstone Capital Management Holdings Llc 2016-09-30 0 New Holding 0 $ 0 $ 0
American International Group Inc 2016-09-30 7,112 Sold Some -5 $ -0 $ 287
Texas Permanent School Fund 2016-09-30 7,316 Sold Some -28 $ -1 $ 295
Usa Mutuals Advisors Inc 2016-09-30 0 Sold All -118 $ -4 $ 0
Cadence Capital Management Llc 2016-09-30 19,797 Sold Some -138 $ -5 $ 800
Blackrock Investment Management Llc 2016-09-30 41,897 Sold Some -193 $ -7 $ 1,694
Ngam Advisors L P 2016-09-30 10,494 Sold Some -317 $ -12 $ 424
Guggenheim Capital Llc 2016-09-30 8,462 Sold Some -353 $ -14 $ 342
Old Second National Bank Of Aurora 2016-09-30 0 Sold All -400 $ -16 $ 0
Northern Trust Corp 2016-09-30 128,015 Sold Some -439 $ -17 $ 5,176
Commonwealth Equity Services Inc 2016-09-30 5,524 Sold Some -495 $ -20 $ 223
Parametric Portfolio Associates Llc 2016-09-30 18,968 Sold Some -516 $ -20 $ 767
Tower Research Capital Llc Trc 2016-09-30 0 Sold All -955 $ -38 $ 0
Teacher Retirement System Of Texas 2016-09-30 0 Sold All -1,341 $ -54 $ 0
North Star Investment Management Corp 2016-09-30 18,600 Sold Some -2,000 $ -80 $ 752
Capwealth Advisors Llc 2016-09-30 10,214 Sold Some -2,750 $ -111 $ 413
Systematic Financial Management Lp 2016-09-30 29,848 Sold Some -3,135 $ -126 $ 1,207
Lapides Asset Management Llc 2016-09-30 38,300 Sold Some -4,700 $ -190 $ 1,548
Whittier Trust Co 2016-09-30 1,500 Sold Some -5,000 $ -202 $ 60
Menta Capital Llc 2016-09-30 0 Sold All -8,620 $ -348 $ 0
Thompson Siegel Walmsley Llc 2016-09-30 7,550 Sold Some -12,100 $ -489 $ 305
Ridgeworth Capital Management Llc 2016-09-30 626,557 Sold Some -15,400 $ -622 $ 25,337
Wbi Investments Inc 2016-09-30 0 Sold All -16,034 $ -648 $ 0
Gsa Capital Partners Llp 2016-09-30 4,697 Sold Some -21,924 $ -886 $ 189
Kennedy Capital Management Inc 2016-09-30 0 Sold All -24,537 $ -992 $ 0
Putnam Investments Llc 2016-09-30 43,926 Sold Some -27,262 $ -1,102 $ 1,776
Royce Associates Lp 2016-09-30 1,075,600 Sold Some -46,943 $ -1,898 $ 43,497
Harvey Partners Llc 2016-09-30 10,092 Sold Some -49,908 $ -2,018 $ 408
Lafitte Capital Management Lp 2016-09-30 0 Sold All -60,002 $ -2,426 $ 0
Wasatch Advisors Inc 2016-09-30 138,741 Sold Some -77,027 $ -3,114 $ 5,610
Chartwell Investment Partners Llc 2016-09-30 407,343 Sold Some -82,489 $ -3,335 $ 16,472
Deprince Race Zollo Inc 2016-09-30 0 Sold All -122,803 $ -4,966 $ 0